KOMA/OMA METAR and TAF weather

Enter ICAO airport designator
Station Type Date Time Source
KOMA METAR 2020/10/20 18:09 UTC NOAA

KOMA 201809Z 14011KT 4SM -DZ BR SCT009 OVC011 05/04 A3003 RMK AO2 P0000 T00500039


Station Type Date Time Source
KOMA Decoded METAR 2020/10/20 18:09 UTC NOAA

OMAHA EPPLEY AIRFIELD, NE, United States (KOMA) 41-18N 095-54W 312M
Oct 20, 2020 - 02:09 PM EDT / 2020.10.20 1809 UTC
Wind: from the SE (140 degrees) at 13 MPH (11 KT):0
Visibility: 4 mile(s):0
Sky conditions: overcast
Weather: light drizzle; mist
Precipitation last hour: A trace
Temperature: 41.0 F (5.0 C)
Dew Point: 39.0 F (3.9 C)
Relative Humidity: 92%
Pressure (altimeter): 30.03 in. Hg (1016 hPa)
ob: KOMA 201809Z 14011KT 4SM -DZ BR SCT009 OVC011 05/04 A3003 RMK AO2 P0000 T00500039
cycle: 18

Station Type Date Time Source
KOMA TAF 2020/10/20 18:33 UTC NOAA

TAF KOMA 201730Z 2018/2118 15010KT 4SM -DZ BR OVC007
TEMPO 2018/2021 2SM -DZ BR OVC004
FM202100 16011KT P6SM BKN015
FM210500 32005KT P6SM SCT040
FM211300 06006KT P6SM OVC250

Example: see airport list